Time;durP1;ratioP1;P1;durP2;ratioP2;P2;SDS_P1;SDS_P2;PMS_P1;PMS_P2;Temp;Humidity;BMP_temperature;BMP_pressure;BME280_temperature;BME280_humidity;BME280_pressure;Samples;Min_cycle;Max_cycle;Signal;HPM_P1;HPM_P2
2024/02/21 00:00:33;;;;;;;6.85;2.45;;;;;;;18.76;45.50;102163.41;5000111;28;20034;-69
2024/02/21 00:03:01;;;;;;;7.72;2.60;;;;;;;18.64;45.73;102149.22;4998667;28;20870;-70
2024/02/21 00:05:27;;;;;;;5.80;2.22;;;;;;;18.66;45.49;102157.88;4999961;28;20372;-70
2024/02/21 00:07:52;;;;;;;7.03;2.05;;;;;;;18.77;45.76;102180.97;4981259;28;20087;-70
2024/02/21 00:10:18;;;;;;;6.72;2.33;;;;;;;18.75;45.64;102168.78;4999510;28;20037;-69
2024/02/21 00:12:43;;;;;;;6.07;2.58;;;;;;;18.76;45.68;102173.13;4997855;28;20038;-70
2024/02/21 00:15:09;;;;;;;6.78;2.58;;;;;;;18.66;45.54;102162.31;4998081;28;20046;-70
2024/02/21 00:17:34;;;;;;;7.07;2.60;;;;;;;18.61;45.65;102165.25;4999627;28;20042;-69
2024/02/21 00:19:59;;;;;;;6.47;2.28;;;;;;;18.73;45.60;102181.25;4998276;28;20038;-70
2024/02/21 00:22:28;;;;;;;6.47;2.72;;;;;;;18.60;45.58;102152.13;4982430;28;20030;-69
2024/02/21 00:24:53;;;;;;;8.05;2.33;;;;;;;18.60;45.20;102145.03;4998643;28;20069;-70
2024/02/21 00:27:18;;;;;;;6.43;2.42;;;;;;;18.59;45.32;102142.50;4998073;28;20142;-71
2024/02/21 00:29:44;;;;;;;8.20;2.90;;;;;;;18.70;45.56;102160.31;4999360;28;20470;-69
2024/02/21 00:32:09;;;;;;;7.05;2.80;;;;;;;18.49;45.36;102118.47;5000093;28;20073;-70
2024/02/21 00:34:35;;;;;;;5.28;2.25;;;;;;;18.58;45.46;102132.88;4999043;28;20026;-69
2024/02/21 00:37:00;;;;;;;9.43;2.63;;;;;;;18.55;45.34;102122.50;4999270;28;20087;-70
2024/02/21 00:39:26;;;;;;;6.70;2.30;;;;;;;18.62;45.54;102127.31;5000073;28;20030;-70
2024/02/21 00:41:51;;;;;;;6.82;2.33;;;;;;;18.55;45.49;102106.66;4999376;28;20049;-70
2024/02/21 00:44:17;;;;;;;6.35;2.50;;;;;;;18.53;45.19;102104.13;4982155;28;20121;-69
2024/02/21 00:46:42;;;;;;;7.57;2.75;;;;;;;18.51;45.16;102091.97;4996730;28;20033;-69
2024/02/21 00:49:07;;;;;;;9.55;2.67;;;;;;;18.54;45.55;102086.50;4998724;28;20061;-69
2024/02/21 00:51:32;;;;;;;8.10;2.75;;;;;;;18.61;45.21;102101.88;4999520;28;20042;-69
2024/02/21 00:53:58;;;;;;;8.07;2.70;;;;;;;18.50;44.86;102085.88;4999369;28;20040;-69
2024/02/21 00:56:23;;;;;;;6.20;2.17;;;;;;;18.59;45.20;102093.19;4998223;28;20033;-69
2024/02/21 00:58:48;;;;;;;6.00;2.20;;;;;;;18.57;44.96;102092.44;4996701;28;20176;-70
2024/02/21 01:01:21;;;;;;;7.67;2.63;;;;;;;18.57;45.06;102104.81;4994854;28;20120;-69
2024/02/21 01:03:46;;;;;;;7.55;2.20;;;;;;;18.49;45.16;102100.84;4992464;28;20337;-69
2024/02/21 01:06:12;;;;;;;6.88;2.50;;;;;;;18.46;45.08;102092.28;4993537;28;20034;-70
2024/02/21 01:08:37;;;;;;;6.63;2.43;;;;;;;18.49;44.97;102100.00;4997316;28;20040;-70
2024/02/21 01:11:02;;;;;;;4.85;2.17;;;;;;;18.44;45.05;102089.72;4993481;28;20302;-69
2024/02/21 01:13:28;;;;;;;5.93;2.17;;;;;;;18.39;44.94;102069.84;4996922;28;20029;-70
2024/02/21 01:15:54;;;;;;;5.82;2.00;;;;;;;18.52;45.02;102091.88;4995305;28;20041;-69
2024/02/21 01:18:19;;;;;;;6.15;2.53;;;;;;;18.49;44.95;102073.59;4979842;28;20180;-69
2024/02/21 01:20:44;;;;;;;6.23;2.33;;;;;;;18.45;45.01;102066.81;4996552;28;20046;-70
2024/02/21 01:23:09;;;;;;;6.55;2.35;;;;;;;18.36;44.86;102049.78;4996174;28;20277;-70
2024/02/21 01:25:35;;;;;;;5.68;2.22;;;;;;;18.49;45.10;102066.50;4996419;28;20034;-71
2024/02/21 01:28:00;;;;;;;5.38;2.15;;;;;;;18.41;44.83;102050.31;4997151;28;20030;-70
2024/02/21 01:30:25;;;;;;;6.18;2.13;;;;;;;18.49;45.04;102071.78;4998078;28;20454;-71
2024/02/21 01:32:50;;;;;;;5.90;2.10;;;;;;;18.33;44.97;102042.06;4996960;28;20053;-70
2024/02/21 01:35:16;;;;;;;4.77;1.90;;;;;;;18.45;45.11;102066.81;4998848;28;20034;-71
2024/02/21 01:37:41;;;;;;;6.72;2.30;;;;;;;18.43;44.87;102061.63;4997601;28;20279;-70
2024/02/21 01:40:07;;;;;;;7.25;2.55;;;;;;;18.44;44.86;102062.50;4997964;28;20504;-70
2024/02/21 01:42:32;;;;;;;6.85;2.63;;;;;;;18.31;44.91;102036.88;4998758;28;20034;-70
2024/02/21 01:44:58;;;;;;;5.95;2.22;;;;;;;18.39;45.10;102056.63;4998347;28;20084;-70
2024/02/21 01:47:23;;;;;;;5.80;2.35;;;;;;;18.34;44.97;102038.47;4997865;28;20116;-70
2024/02/21 01:49:49;;;;;;;6.20;1.98;;;;;;;18.36;44.70;102044.50;4998245;28;20041;-70
2024/02/21 01:52:17;;;;;;;5.90;2.00;;;;;;;18.31;44.91;102033.41;4980781;28;20045;-69
2024/02/21 01:54:44;;;;;;;7.22;2.25;;;;;;;18.33;44.96;102041.22;4997752;28;20033;-70
2024/02/21 01:57:09;;;;;;;5.45;2.33;;;;;;;18.30;44.79;102031.69;4997631;28;20038;-70
2024/02/21 01:59:35;;;;;;;8.05;2.42;;;;;;;18.37;45.00;102046.16;4997596;28;20034;-69
2024/02/21 02:02:01;;;;;;;6.60;1.95;;;;;;;18.28;45.14;102044.13;4995318;28;20025;-69
2024/02/21 02:04:27;;;;;;;5.75;1.83;;;;;;;18.28;44.77;102042.34;4980764;28;20037;-69
2024/02/21 02:06:54;;;;;;;6.45;2.35;;;;;;;18.25;44.75;102034.63;4996821;28;20029;-69
2024/02/21 02:09:20;;;;;;;5.40;2.00;;;;;;;18.39;44.89;102051.34;4997466;28;20038;-70
2024/02/21 02:11:45;;;;;;;6.82;2.20;;;;;;;18.24;44.76;102025.00;4997221;28;20045;-70
2024/02/21 02:14:10;;;;;;;6.55;2.10;;;;;;;18.24;44.85;102017.06;4997648;28;20529;-69
2024/02/21 02:16:35;;;;;;;5.60;1.90;;;;;;;18.28;44.84;102020.38;4997980;28;20447;-69
2024/02/21 02:19:01;;;;;;;6.28;1.85;;;;;;;18.36;44.91;102031.31;4997315;28;20159;-70
2024/02/21 02:21:29;;;;;;;5.93;2.10;;;;;;;18.28;44.80;102021.22;4997889;28;20034;-70
2024/02/21 02:23:54;;;;;;;5.75;2.33;;;;;;;18.27;44.55;102016.88;4980644;28;20103;-70
2024/02/21 02:26:20;;;;;;;5.80;1.90;;;;;;;18.34;44.83;102024.41;4997697;28;20034;-69
2024/02/21 02:28:45;;;;;;;5.05;1.90;;;;;;;18.19;44.85;101999.84;4997053;28;20537;-70
2024/02/21 02:31:11;;;;;;;4.13;1.70;;;;;;;18.31;44.59;102009.63;5001971;28;20454;-69
2024/02/21 02:33:36;;;;;;;5.97;2.20;;;;;;;18.22;44.72;101989.13;4983809;28;20029;-70
2024/02/21 02:36:01;;;;;;;4.55;1.70;;;;;;;18.22;44.76;101991.75;5001543;28;20037;-70
2024/02/21 02:38:27;;;;;;;5.55;1.77;;;;;;;18.28;44.77;101994.00;5001351;28;20038;-69
2024/02/21 02:40:52;;;;;;;4.47;1.75;;;;;;;18.16;44.71;101979.78;5000040;28;20092;-70
2024/02/21 02:43:17;;;;;;;5.78;2.30;;;;;;;18.24;44.79;101993.31;5002181;28;20793;-70
2024/02/21 02:45:43;;;;;;;4.97;1.80;;;;;;;18.28;44.73;101994.84;5000879;28;20037;-69
2024/02/21 02:48:08;;;;;;;6.72;2.35;;;;;;;18.14;44.67;101971.13;5000794;28;20772;-70
2024/02/21 02:50:34;;;;;;;5.60;1.88;;;;;;;18.26;44.43;101985.31;5000796;28;20040;-70
2024/02/21 02:52:59;;;;;;;4.13;1.60;;;;;;;18.27;44.70;101982.56;5000168;28;20038;-70
2024/02/21 02:55:25;;;;;;;5.63;2.50;;;;;;;18.22;44.53;101968.84;5000551;28;20041;-70
2024/02/21 02:57:51;;;;;;;5.95;1.90;;;;;;;18.24;44.80;101976.66;5001149;28;20388;-70
2024/02/21 03:00:17;;;;;;;5.57;1.90;;;;;;;18.15;44.63;101972.81;5000268;28;20095;-70
2024/02/21 03:02:45;;;;;;;6.10;1.88;;;;;;;18.13;44.55;101958.88;4998823;28;20426;-70
2024/02/21 03:05:20;;;;;;;5.90;1.85;;;;;;;18.10;44.43;101954.66;5000485;28;20034;-70
2024/02/21 03:07:46;;;;;;;4.68;1.80;;;;;;;18.22;44.56;101973.28;4999878;28;20168;-70
2024/02/21 03:10:12;;;;;;;5.75;2.00;;;;;;;18.23;44.69;101986.38;4998855;28;20030;-70
2024/02/21 03:12:37;;;;;;;4.43;1.75;;;;;;;18.23;44.71;101982.88;5000305;28;20033;-70
2024/02/21 03:15:04;;;;;;;4.28;1.65;;;;;;;18.14;44.78;101963.22;5000331;28;21034;-69
2024/02/21 03:17:29;;;;;;;5.78;2.10;;;;;;;18.13;44.40;101966.78;5000572;28;20085;-70
2024/02/21 03:19:55;;;;;;;5.22;1.58;;;;;;;18.21;44.42;101975.06;5000162;28;20041;-70
2024/02/21 03:22:21;;;;;;;5.63;2.03;;;;;;;18.18;44.59;101962.03;5001069;28;20104;-70
2024/02/21 03:24:47;;;;;;;4.95;1.67;;;;;;;18.20;44.81;101957.53;4999694;28;20468;-71
2024/02/21 03:27:12;;;;;;;4.55;1.75;;;;;;;18.10;44.92;101945.88;4999728;28;20029;-70
2024/02/21 03:29:37;;;;;;;4.22;1.73;;;;;;;18.07;44.82;101935.50;5000214;28;20076;-70
2024/02/21 03:32:03;;;;;;;6.47;1.85;;;;;;;18.00;44.86;101911.31;5000383;28;20526;-70
2024/02/21 03:34:28;;;;;;;5.65;2.30;;;;;;;18.10;44.75;101928.28;4999762;28;20418;-70
2024/02/21 03:36:54;;;;;;;6.07;1.98;;;;;;;18.06;44.52;101920.66;4998815;28;21021;-70
2024/02/21 03:39:19;;;;;;;5.22;1.67;;;;;;;18.06;44.60;101908.28;4998582;28;20034;-70
2024/02/21 03:41:44;;;;;;;4.38;1.70;;;;;;;18.07;44.54;101904.72;4999269;28;20062;-70
2024/02/21 03:44:09;;;;;;;6.25;1.58;;;;;;;18.18;44.82;101916.34;4999481;28;20026;-69
2024/02/21 03:46:35;;;;;;;4.13;1.63;;;;;;;18.17;44.49;101923.44;5000210;28;20149;-70
2024/02/21 03:49:00;;;;;;;6.25;1.75;;;;;;;18.16;44.68;101926.19;4982934;28;20080;-70
2024/02/21 03:51:26;;;;;;;6.07;1.80;;;;;;;17.97;44.81;101886.94;4999735;28;20406;-70
2024/02/21 03:53:51;;;;;;;4.68;1.58;;;;;;;18.06;44.56;101894.25;4981435;28;20026;-71
2024/02/21 03:56:16;;;;;;;4.82;1.60;;;;;;;18.15;44.46;101911.28;5000443;28;20411;-70
2024/02/21 03:58:42;;;;;;;5.60;1.80;;;;;;;18.15;44.66;101908.66;4998684;28;20891;-70
2024/02/21 04:01:07;;;;;;;4.43;1.60;;;;;;;18.03;44.39;101897.09;4999692;28;20044;-70
2024/02/21 04:03:32;;;;;;;3.33;1.38;;;;;;;18.08;44.64;101903.75;4995790;28;20137;-70
2024/02/21 04:05:57;;;;;;;5.43;1.90;;;;;;;18.11;44.34;101908.84;4999258;28;20034;-70
2024/02/21 04:08:23;;;;;;;5.28;1.90;;;;;;;18.04;44.40;101897.00;4999392;28;20037;-69
2024/02/21 04:10:49;;;;;;;4.03;1.65;;;;;;;18.12;44.75;101915.81;4999872;28;20037;-70
2024/02/21 04:13:14;;;;;;;4.85;1.60;;;;;;;18.14;44.64;101915.72;4999367;28;20699;-70
2024/02/21 04:15:39;;;;;;;5.38;1.73;;;;;;;18.03;44.64;101899.75;4982746;28;20039;-70
2024/02/21 04:18:05;;;;;;;4.72;2.00;;;;;;;18.00;44.24;101892.03;4999148;28;20116;-69
2024/02/21 04:20:30;;;;;;;4.45;1.63;;;;;;;18.03;44.42;101900.56;4999669;28;20069;-70
2024/02/21 04:22:56;;;;;;;6.40;1.95;;;;;;;18.04;44.85;101898.78;4999839;28;20081;-70
2024/02/21 04:25:22;;;;;;;3.65;1.40;;;;;;;18.01;44.51;101891.06;4999554;28;20752;-70
2024/02/21 04:27:47;;;;;;;6.53;1.90;;;;;;;18.00;44.52;101895.50;4998494;28;20037;-70
2024/02/21 04:30:13;;;;;;;5.82;1.67;;;;;;;18.10;44.57;101914.22;4998039;28;20060;-69
2024/02/21 04:32:39;;;;;;;5.68;1.67;;;;;;;17.95;44.57;101889.69;5000001;28;20038;-70
2024/02/21 04:35:04;;;;;;;4.55;1.70;;;;;;;18.06;44.49;101894.25;4998996;28;20117;-69
2024/02/21 04:37:30;;;;;;;3.75;1.70;;;;;;;17.97;44.99;101879.88;4999874;28;20080;-70
2024/02/21 04:39:56;;;;;;;5.70;1.65;;;;;;;17.95;44.55;101876.50;4998952;28;20062;-69
2024/02/21 04:42:21;;;;;;;5.20;1.95;;;;;;;17.95;44.73;101885.25;4999786;28;20117;-70
2024/02/21 04:44:46;;;;;;;5.28;1.63;;;;;;;18.03;44.55;101897.94;4999262;28;20381;-70
2024/02/21 04:47:12;;;;;;;4.25;1.60;;;;;;;18.02;44.53;101896.22;4996319;28;20045;-70
2024/02/21 04:49:38;;;;;;;6.22;2.40;;;;;;;18.00;44.56;101887.59;4999638;28;20140;-70
2024/02/21 04:52:03;;;;;;;6.63;2.30;;;;;;;18.00;44.33;101892.84;4997853;28;20484;-69
2024/02/21 04:54:29;;;;;;;4.18;1.95;;;;;;;18.03;44.56;101884.75;4997774;28;20026;-70
2024/02/21 04:56:54;;;;;;;5.70;2.17;;;;;;;17.92;44.52;101861.69;4998454;28;20034;-70
2024/02/21 04:59:19;;;;;;;5.93;2.20;;;;;;;17.98;44.47;101872.81;4999254;28;20113;-70
2024/02/21 05:01:45;;;;;;;6.10;2.10;;;;;;;18.00;44.50;101876.19;4996624;28;20037;-70
2024/02/21 05:04:10;;;;;;;6.70;2.10;;;;;;;17.98;44.46;101871.00;4994366;28;20034;-70
2024/02/21 05:06:42;;;;;;;4.50;1.70;;;;;;;17.92;44.88;101864.34;4998076;28;20026;-69
2024/02/21 05:09:08;;;;;;;5.45;1.88;;;;;;;17.84;44.57;101842.03;4998172;28;20046;-70
2024/02/21 05:11:34;;;;;;;4.45;1.73;;;;;;;18.00;44.90;101871.75;4999018;28;20084;-69
2024/02/21 05:14:00;;;;;;;5.63;2.28;;;;;;;17.91;44.73;101857.38;4998105;28;20038;-70
2024/02/21 05:16:25;;;;;;;6.40;2.17;;;;;;;17.99;44.65;101867.44;4999152;28;20040;-70
2024/02/21 05:18:50;;;;;;;5.15;1.75;;;;;;;17.90;44.70;101849.56;4980011;28;20050;-70
2024/02/21 05:21:15;;;;;;;6.63;2.30;;;;;;;18.02;44.30;101864.56;4998864;28;20030;-71
2024/02/21 05:23:41;;;;;;;4.40;1.80;;;;;;;17.98;44.73;101851.72;4998184;28;20030;-69
2024/02/21 05:26:06;;;;;;;5.03;1.98;;;;;;;18.02;44.55;101853.19;4999332;28;20033;-70
2024/02/21 05:28:32;;;;;;;5.35;2.20;;;;;;;18.00;44.58;101844.53;4994037;28;20033;-70
2024/02/21 05:30:57;;;;;;;4.47;1.98;;;;;;;17.88;44.43;101815.38;4997617;28;20041;-69
2024/02/21 05:33:22;;;;;;;5.07;2.28;;;;;;;17.92;44.50;101821.31;4997485;28;20054;-69
2024/02/21 05:35:48;;;;;;;5.25;1.90;;;;;;;17.68;44.62;101781.53;4998056;28;20034;-70
2024/02/21 05:38:14;;;;;;;4.53;1.95;;;;;;;17.98;44.74;101839.38;4997968;28;20049;-70
2024/02/21 05:40:39;;;;;;;5.50;2.15;;;;;;;17.95;44.52;101829.00;4999099;28;20140;-70
2024/02/21 05:43:04;;;;;;;5.13;1.95;;;;;;;17.84;44.73;101811.22;4997660;28;20033;-70
2024/02/21 05:45:29;;;;;;;6.68;2.35;;;;;;;17.87;44.51;101816.28;4998052;28;20817;-70
2024/02/21 05:47:55;;;;;;;6.07;2.10;;;;;;;17.87;44.60;101810.19;4998597;28;20061;-70
2024/02/21 05:50:21;;;;;;;5.82;1.80;;;;;;;17.87;44.52;101810.19;4998060;28;20089;-69
2024/02/21 05:52:47;;;;;;;5.10;1.80;;;;;;;17.87;44.51;101802.28;4998549;28;20115;-69
2024/02/21 05:55:12;;;;;;;4.88;1.77;;;;;;;17.95;44.58;101810.56;4981271;28;20084;-70
2024/02/21 05:57:37;;;;;;;4.47;1.77;;;;;;;17.85;44.42;101789.19;4997016;28;20041;-70
2024/02/21 06:00:05;;;;;;;4.53;1.85;;;;;;;17.88;44.77;101806.59;4997460;28;20088;-70
2024/02/21 06:02:30;;;;;;;5.18;2.03;;;;;;;17.96;44.61;101820.16;4979495;28;20844;-70
2024/02/21 06:04:57;;;;;;;4.25;1.80;;;;;;;17.85;44.71;101791.81;4998158;28;20145;-69
2024/02/21 06:07:22;;;;;;;5.13;1.70;;;;;;;17.84;44.69;101786.66;5000669;28;20070;-69
2024/02/21 06:09:47;;;;;;;4.22;1.70;;;;;;;17.92;44.80;101789.66;4984302;28;20030;-69
2024/02/21 06:12:12;;;;;;;4.40;1.58;;;;;;;17.89;45.08;101774.03;4997906;28;20498;-69
2024/02/21 06:14:38;;;;;;;4.75;1.65;;;;;;;17.88;44.84;101769.69;5000991;28;20065;-69
2024/02/21 06:17:03;;;;;;;4.88;1.55;;;;;;;17.90;45.23;101759.91;5000969;28;20050;-68
2024/02/21 06:19:28;;;;;;;3.47;1.48;;;;;;;17.97;45.13;101769.09;5002114;28;20045;-68
2024/02/21 06:21:54;;;;;;;3.78;1.50;;;;;;;17.93;45.44;101759.72;5000274;28;20473;-68
2024/02/21 06:24:19;;;;;;;4.28;1.60;;;;;;;18.02;44.85;101768.78;5002282;28;20030;-68
2024/02/21 06:26:44;;;;;;;4.50;1.60;;;;;;;17.95;45.07;101760.44;5000943;28;20388;-68
2024/02/21 06:29:11;;;;;;;5.15;1.33;;;;;;;18.08;45.41;101778.94;5002527;28;20037;-68
2024/02/21 06:31:36;;;;;;;4.47;1.63;;;;;;;18.13;45.54;101782.97;5002127;28;20030;-68
2024/02/21 06:34:02;;;;;;;4.32;1.23;;;;;;;18.04;45.28;101765.13;5000700;28;20468;-68
2024/02/21 06:36:27;;;;;;;3.97;1.35;;;;;;;18.04;45.54;101758.97;5001294;28;20084;-68
2024/02/21 06:38:52;;;;;;;3.67;1.40;;;;;;;18.20;45.35;101786.03;4983713;28;20049;-68
2024/02/21 06:41:19;;;;;;;4.35;1.55;;;;;;;18.11;45.39;101762.91;5001245;28;20538;-69
2024/02/21 06:43:47;;;;;;;3.28;1.40;;;;;;;18.25;45.39;101785.75;5000915;28;20025;-68
2024/02/21 06:46:23;;;;;;;5.18;1.50;;;;;;;18.17;45.29;101770.41;5001960;28;20129;-69
2024/02/21 06:48:48;;;;;;;3.55;1.40;;;;;;;18.29;45.23;101790.72;5000161;28;20033;-69
2024/02/21 06:51:14;;;;;;;3.97;1.60;;;;;;;18.19;45.44;101765.03;4999953;28;20037;-68
2024/02/21 06:53:40;;;;;;;3.20;1.40;;;;;;;18.22;45.07;101768.31;4997306;28;20049;-68
2024/02/21 06:56:05;;;;;;;4.15;1.25;;;;;;;18.35;44.98;101796.53;4998424;28;20042;-69
2024/02/21 06:58:30;;;;;;;4.00;1.60;;;;;;;18.34;45.29;101787.75;4997309;28;20183;-69
2024/02/21 07:00:56;;;;;;;3.75;1.40;;;;;;;18.37;45.24;101789.34;4995814;28;20034;-69
2024/02/21 07:03:21;;;;;;;4.68;1.80;;;;;;;18.34;45.34;101778.97;4996595;28;20379;-69
2024/02/21 07:05:46;;;;;;;4.85;1.45;;;;;;;18.28;45.24;101765.25;4998999;28;20489;-68
2024/02/21 07:08:12;;;;;;;4.50;1.50;;;;;;;18.31;45.35;101764.22;4998660;28;20480;-68
2024/02/21 07:10:37;;;;;;;4.95;1.60;;;;;;;18.34;45.63;101765.78;5000013;28;20041;-69
2024/02/21 07:13:02;;;;;;;4.73;1.57;;;;;;;18.27;45.59;101749.53;5000632;28;20097;-69
2024/02/21 07:15:29;;;;;;;4.50;1.75;;;;;;;18.32;45.50;101760.63;4999657;28;20259;-70
2024/02/21 07:17:54;;;;;;;3.38;1.40;;;;;;;18.33;45.66;101754.41;4982494;28;20494;-69
2024/02/21 07:20:20;;;;;;;4.38;1.70;;;;;;;18.36;45.82;101754.19;4983599;28;20029;-69
2024/02/21 07:22:46;;;;;;;4.30;1.60;;;;;;;18.33;46.18;101745.66;5000431;28;20653;-69
2024/02/21 07:25:11;;;;;;;4.50;1.98;;;;;;;18.36;46.04;101746.28;4983986;28;20032;-69
2024/02/21 07:27:37;;;;;;;5.15;1.70;;;;;;;18.35;46.15;101741.94;5001171;28;20092;-69
2024/02/21 07:30:03;;;;;;;4.15;1.52;;;;;;;18.37;45.96;101744.47;5000314;28;20479;-70
2024/02/21 07:32:28;;;;;;;4.30;1.70;;;;;;;18.37;46.00;101737.38;5001123;28;20306;-69
2024/02/21 07:34:53;;;;;;;3.60;1.60;;;;;;;18.44;46.16;101740.47;5000016;28;20042;-69
2024/02/21 07:37:19;;;;;;;4.07;1.60;;;;;;;18.45;46.05;101739.50;4999724;28;20531;-68
2024/02/21 07:39:44;;;;;;;4.63;1.48;;;;;;;18.38;46.08;101725.06;4998256;28;20030;-69
2024/02/21 07:42:09;;;;;;;5.60;1.40;;;;;;;18.39;46.33;101724.09;5001054;28;20064;-68
2024/02/21 07:44:35;;;;;;;4.53;1.70;;;;;;;18.42;46.49;101718.59;4983061;28;20030;-69
2024/02/21 07:47:01;;;;;;;5.13;1.70;;;;;;;18.49;45.88;101719.88;4999382;28;20120;-69
2024/02/21 07:49:26;;;;;;;5.50;1.60;;;;;;;18.47;46.35;101720.00;4999945;28;20125;-68
2024/02/21 07:51:52;;;;;;;5.28;1.92;;;;;;;18.47;46.42;101711.25;4982073;28;20072;-70
2024/02/21 07:54:18;;;;;;;5.15;1.98;;;;;;;18.47;46.63;101701.50;5001260;28;20029;-69
2024/02/21 07:56:43;;;;;;;4.88;1.70;;;;;;;18.35;46.57;101678.59;4982566;28;20045;-70
2024/02/21 07:59:08;;;;;;;5.75;1.85;;;;;;;18.44;47.49;101687.69;5001204;28;20120;-70
2024/02/21 08:01:33;;;;;;;5.43;2.13;;;;;;;18.51;47.71;101701.31;4999891;28;20026;-70
2024/02/21 08:03:59;;;;;;;6.45;2.50;;;;;;;18.43;48.08;101691.28;4998088;28;20033;-70
2024/02/21 08:06:24;;;;;;;4.57;1.80;;;;;;;18.39;47.99;101687.13;5000191;28;20065;-70
2024/02/21 08:08:50;;;;;;;5.47;2.35;;;;;;;18.36;48.37;101668.88;4999568;28;20033;-70
2024/02/21 08:11:15;;;;;;;6.03;2.17;;;;;;;18.46;48.02;101691.91;4998951;28;20041;-70
2024/02/21 08:13:40;;;;;;;5.68;2.10;;;;;;;18.49;47.87;101694.31;4999845;28;20979;-70
2024/02/21 08:16:06;;;;;;;7.78;2.25;;;;;;;18.42;48.02;101668.44;4999996;28;20033;-72
2024/02/21 08:18:31;;;;;;;6.32;2.30;;;;;;;18.48;47.95;101675.94;4999028;28;20054;-70
2024/02/21 08:20:56;;;;;;;6.05;2.08;;;;;;;18.44;47.85;101669.22;5000167;28;20037;-70
2024/02/21 08:23:23;;;;;;;5.88;2.08;;;;;;;18.42;47.60;101661.41;4999595;28;20038;-70
2024/02/21 08:25:49;;;;;;;6.82;2.33;;;;;;;18.50;47.68;101666.16;4998612;28;20112;-69
2024/02/21 08:28:14;;;;;;;4.97;1.90;;;;;;;18.41;47.65;101648.31;4999059;28;20113;-70
2024/02/21 08:30:44;;;;;;;6.20;2.20;;;;;;;18.45;47.70;101650.63;4983083;28;20026;-68
2024/02/21 08:33:09;;;;;;;5.93;2.10;;;;;;;18.40;47.51;101638.69;4998952;28;20057;-69
2024/02/21 08:35:34;;;;;;;5.43;2.20;;;;;;;18.45;47.72;101647.13;5000208;28;20104;-70
2024/02/21 08:38:00;;;;;;;6.32;2.00;;;;;;;18.45;47.53;101636.56;5000069;28;20040;-69
2024/02/21 08:40:25;;;;;;;4.43;1.80;;;;;;;18.50;47.47;101650.31;4998694;28;20478;-69
2024/02/21 08:42:50;;;;;;;7.18;2.60;;;;;;;18.41;47.50;101625.41;4999521;28;20033;-68
2024/02/21 08:45:16;;;;;;;4.45;1.77;;;;;;;18.46;47.38;101639.09;4999778;28;20038;-69
2024/02/21 08:47:41;;;;;;;5.75;1.95;;;;;;;18.51;47.50;101640.59;4978950;28;20065;-68
2024/02/21 08:50:09;;;;;;;5.28;2.00;;;;;;;18.39;47.51;101611.47;4999668;28;20050;-69
2024/02/21 08:52:35;;;;;;;6.13;2.20;;;;;;;18.49;47.44;101625.69;4999514;28;20153;-69
2024/02/21 08:55:00;;;;;;;6.22;1.92;;;;;;;18.37;47.62;101600.16;4998263;28;20116;-68
2024/02/21 08:57:26;;;;;;;6.25;2.00;;;;;;;18.41;47.79;101595.53;4999862;28;20217;-69
2024/02/21 08:59:51;;;;;;;6.38;1.90;;;;;;;18.46;47.60;101601.31;4999793;28;20060;-69
2024/02/21 09:02:16;;;;;;;4.77;1.80;;;;;;;18.49;47.52;101601.09;4996916;28;20033;-69
2024/02/21 09:04:42;;;;;;;4.20;1.67;;;;;;;18.49;47.53;101604.56;4976593;28;20306;-70
2024/02/21 09:07:07;;;;;;;4.70;1.77;;;;;;;18.48;47.45;101602.03;4997433;28;20029;-70
2024/02/21 09:09:33;;;;;;;7.25;2.00;;;;;;;18.47;47.64;101605.66;4998029;28;20034;-69
2024/02/21 09:12:05;;;;;;;5.07;1.85;;;;;;;18.47;47.47;101598.56;4998239;28;20029;-70
2024/02/21 09:14:30;;;;;;;4.88;1.88;;;;;;;18.42;47.47;101597.19;4997811;28;20037;-69
2024/02/21 09:16:56;;;;;;;4.75;1.65;;;;;;;18.42;47.99;101586.63;4998381;28;20103;-70
2024/02/21 09:19:21;;;;;;;4.40;1.58;;;;;;;18.46;47.55;101588.97;4998517;28;20480;-69
2024/02/21 09:21:46;;;;;;;5.45;1.90;;;;;;;18.37;47.55;101579.03;4998312;28;20045;-69
2024/02/21 09:24:12;;;;;;;3.92;1.48;;;;;;;18.33;47.53;101566.22;4999667;28;20472;-69
2024/02/21 09:26:37;;;;;;;5.63;1.60;;;;;;;18.50;47.32;101597.53;4999117;28;20033;-69
2024/02/21 09:29:03;;;;;;;6.30;1.75;;;;;;;18.39;47.68;101577.16;4995972;28;20034;-69
2024/02/21 09:31:29;;;;;;;5.10;1.60;;;;;;;18.51;47.79;101595.72;4999153;28;20336;-69
2024/02/21 09:33:54;;;;;;;3.70;1.63;;;;;;;18.40;47.52;101567.44;4981053;28;20030;-69
2024/02/21 09:36:21;;;;;;;3.78;1.38;;;;;;;18.38;47.45;101561.44;4996890;28;20088;-70
2024/02/21 09:38:46;;;;;;;4.43;1.58;;;;;;;18.49;47.68;101574.72;4993684;28;20049;-76
2024/02/21 09:41:19;;;;;;;4.43;1.98;;;;;;;18.38;47.67;101543.78;5000654;28;20034;-72
2024/02/21 09:43:48;;;;;;;6.60;1.80;;;;;;;18.44;47.58;101545.16;5001828;28;20065;-73
2024/02/21 09:46:20;;;;;;;4.03;1.65;;;;;;;18.50;47.89;101547.38;5001735;28;20022;-71
2024/02/21 09:48:58;;;;;;;5.30;1.80;;;;;;;18.53;47.91;101541.00;5001166;28;20124;-71
2024/02/21 09:51:27;;;;;;;6.38;1.58;;;;;;;18.45;47.93;101520.44;4984157;28;20073;-72
2024/02/21 09:53:53;;;;;;;4.78;1.80;;;;;;;18.40;47.83;101504.09;4983514;28;20034;-73
2024/02/21 09:56:19;;;;;;;8.02;2.10;;;;;;;18.49;47.82;101514.00;4999577;28;20152;-71
2024/02/21 09:58:46;;;;;;;5.07;1.80;;;;;;;18.43;47.76;101496.81;5001248;28;20159;-72
2024/02/21 10:01:12;;;;;;;4.88;1.67;;;;;;;18.56;47.35;101507.31;5001021;28;20103;-70
2024/02/21 10:03:38;;;;;;;5.18;1.70;;;;;;;18.40;47.53;101472.44;4999333;28;20555;-71
2024/02/21 10:06:03;;;;;;;4.25;1.55;;;;;;;18.56;47.44;101496.75;5000262;28;20117;-73
2024/02/21 10:08:28;;;;;;;5.88;1.70;;;;;;;18.58;47.46;101499.28;4984264;28;20032;-74
2024/02/21 10:10:58;;;;;;;4.78;1.40;;;;;;;18.53;47.53;101473.22;5000825;28;20030;-76
2024/02/21 10:13:28;;;;;;;4.40;1.77;;;;;;;18.56;47.43;101472.16;5001237;28;20034;-74
2024/02/21 10:16:07;;;;;;;4.53;1.60;;;;;;;18.60;47.51;101471.81;4983945;28;20029;-76
2024/02/21 10:18:34;;;;;;;4.68;1.88;;;;;;;18.46;47.44;101442.97;5000358;28;20184;-75
2024/02/21 10:21:03;;;;;;;4.93;1.60;;;;;;;18.48;47.58;101436.63;5001868;28;20033;-73
2024/02/21 10:23:29;;;;;;;4.80;2.05;;;;;;;18.58;47.53;101449.13;4999668;28;20480;-70
2024/02/21 10:25:54;;;;;;;4.57;1.58;;;;;;;18.59;47.35;101434.97;5000280;28;20113;-70
2024/02/21 10:28:23;;;;;;;4.00;1.75;;;;;;;18.46;47.35;101400.72;5000863;28;20033;-72
2024/02/21 10:30:52;;;;;;;3.63;1.35;;;;;;;18.55;47.24;101405.34;4984047;28;20069;-71
2024/02/21 10:33:20;;;;;;;4.65;1.52;;;;;;;18.50;46.84;101391.66;4999691;28;20542;-69
2024/02/21 10:35:47;;;;;;;3.80;1.40;;;;;;;18.60;47.25;101405.00;4999497;28;20034;-73
2024/02/21 10:38:12;;;;;;;3.72;1.48;;;;;;;18.60;47.26;101384.72;4993071;28;20492;-74
2024/02/21 10:40:38;;;;;;;5.28;1.60;;;;;;;18.53;47.46;101362.34;4997886;28;20034;-71
2024/02/21 10:43:08;;;;;;;6.45;1.60;;;;;;;18.60;47.50;101358.31;5000924;28;20030;-70
2024/02/21 10:45:36;;;;;;;4.43;1.52;;;;;;;18.64;47.64;101345.72;4999290;28;20030;-70
2024/02/21 10:48:02;;;;;;;3.10;1.25;;;;;;;18.64;47.57;101345.72;5001695;28;20313;-69
2024/02/21 10:50:33;;;;;;;3.58;1.20;;;;;;;18.53;47.39;101332.50;5001293;28;20025;-70
2024/02/21 10:53:14;;;;;;;5.35;1.30;;;;;;;18.61;47.57;101338.03;5000117;28;20033;-70
2024/02/21 10:55:50;;;;;;;4.40;1.63;;;;;;;18.54;47.42;101340.28;5002448;28;20844;-71
2024/02/21 10:58:16;;;;;;;5.13;1.50;;;;;;;18.55;47.59;101344.63;5001684;28;20535;-71
2024/02/21 11:00:42;;;;;;;4.38;1.58;;;;;;;18.45;47.50;101327.78;5001208;28;20124;-69
2024/02/21 11:03:08;;;;;;;4.53;1.20;;;;;;;18.54;47.58;101347.38;4997209;28;20030;-69
2024/02/21 11:05:34;;;;;;;3.75;1.48;;;;;;;18.52;47.47;101344.84;5001482;28;20034;-69
2024/02/21 11:08:00;;;;;;;4.00;1.40;;;;;;;18.58;47.50;101357.59;5000289;28;20038;-69
2024/02/21 11:10:26;;;;;;;4.68;1.25;;;;;;;18.62;47.58;101360.84;4983049;28;20483;-69
2024/02/21 11:12:54;;;;;;;3.63;1.27;;;;;;;18.52;47.45;101339.56;5001431;28;20785;-73
2024/02/21 11:15:25;;;;;;;6.03;1.92;;;;;;;18.54;47.62;101342.09;4999789;28;20044;-72
2024/02/21 11:17:55;;;;;;;5.18;1.30;;;;;;;18.46;47.77;101316.28;5000496;28;20611;-71